Flight Track Log - Related Links

Times and Time Zones

All times are in EDT time to prevent confusion due to time zone crossing. See the MKU303 flight status page for this flight to view local times or setup timezone preferences in your user account.

Time Position Orientation Groundspeed Altitude Reporting Facility
EDT Latitude Longitude Course Direction KTS MPH feet Rate Location/Type
Fri 04:38:03 PM 20.7500 -156.9667 290° West 160 184 3,000  Level Honolulu Center
Fri 04:39:03 PM 20.7667 -157.0167 290° West 180 207 4,900 1,600 Climbing Honolulu Center
Fri 04:40:03 PM 20.7833 -157.0833 285° West 210 242 6,200 1,550 Climbing Honolulu Center
Fri 04:41:03 PM 20.8000 -157.1333 290° West 210 242 8,000 893 Climbing Honolulu Center
Fri 04:42:04 PM 20.8333 -157.2000 298° West 250 288 8,000  Level Honolulu Center
Fri 04:43:04 PM 20.8500 -157.2667 285° West 260 299 8,000  Level Honolulu Center
Fri 04:44:04 PM 20.8667 -157.3500 282° West 270 311 8,000  Level Honolulu Center
Fri 04:45:04 PM 20.9000 -157.4333 293° West 270 311 8,000 -300 Level Honolulu Center
Fri 04:46:04 PM 20.9333 -157.5000 298° West 260 299 7,400 -750 Descending Honolulu Center
Fri 04:47:04 PM 20.9500 -157.5667 285° West 250 288 6,500 -1,000 Descending Honolulu Center
Fri 04:48:04 PM 20.9833 -157.6333 298° West 250 288 5,400 -1,050 Descending Honolulu Center
Fri 04:49:04 PM 21.0167 -157.7000 298° West 240 276 4,400 -1,000 Descending Honolulu Center
Fri 04:50:04 PM 21.0333 -157.7667 285° West 250 288 3,400 -992 Descending Honolulu Center
Fri 04:51:05 PM 21.0667 -157.8333 298° West 240 276 2,400 -694 Descending Honolulu Center
Fri 04:52:05 PM 21.1000 -157.8833 306° West 220 253 2,000 -200 Descending Honolulu Center
Fri 04:53:05 PM 21.1500 -157.9167 328° Northwest 200 230 2,000  Level Honolulu Center
Fri 04:54:05 PM 21.2000 -157.9333 343° North 180 207 2,000  Level Honolulu Center
Fri 04:55:05 PM 21.2500 -157.9500 343° North 180 207 2,000 -500 Level Honolulu Center
Fri 04:56:05 PM 21.2833 -157.9667 335° Northwest 150 173 1,000 -800 Descending Honolulu Center
Fri 04:57:05 PM 21.3167 -157.9500 25° Northeast 110 127 400 -600 Descending Honolulu Center

Login

Don't have an account? Register now (free) for customized features, flight alerts, and more!